Time;durP1;ratioP1;P1;durP2;ratioP2;P2;SDS_P1;SDS_P2;PMS_P1;PMS_P2;Temp;Humidity;BMP_temperature;BMP_pressure;BME280_temperature;BME280_humidity;BME280_pressure;Samples;Min_cycle;Max_cycle;Signal;HPM_P1;HPM_P2
2024/04/21 00:01:50;;;;;;;7.47;6.57;;;1.30;99.90;;;;;;5354236;26;20701;-77
2024/04/21 00:04:17;;;;;;;5.93;5.60;;;1.30;99.90;;;;;;5382363;26;20015;-79
2024/04/21 00:06:44;;;;;;;11.07;8.98;;;1.20;99.90;;;;;;5376770;26;20018;-77
2024/04/21 00:09:11;;;;;;;7.40;6.68;;;1.20;99.90;;;;;;5387483;26;20020;-78
2024/04/21 00:11:38;;;;;;;10.00;8.80;;;1.20;99.90;;;;;;5386585;26;20032;-77
2024/04/21 00:14:06;;;;;;;8.30;7.43;;;1.30;99.90;;;;;;5394038;26;20058;-78
2024/04/21 00:16:33;;;;;;;8.95;8.15;;;1.30;99.90;;;;;;5381254;26;20018;-77
2024/04/21 00:19:00;;;;;;;7.38;6.78;;;1.30;99.90;;;;;;5384910;26;20618;-76
2024/04/21 00:21:28;;;;;;;6.50;6.00;;;1.30;99.90;;;;;;5364087;26;20013;-76
2024/04/21 00:23:56;;;;;;;12.38;8.70;;;1.30;99.90;;;;;;5374558;26;20015;-76
2024/04/21 00:26:24;;;;;;;8.38;6.72;;;1.40;99.90;;;;;;5386623;26;20074;-76
2024/04/21 00:28:51;;;;;;;4.88;4.60;;;1.30;99.90;;;;;;5378526;26;20026;-77
2024/04/21 00:31:18;;;;;;;4.80;4.60;;;1.30;99.90;;;;;;5362776;26;20805;-79
2024/04/21 00:33:46;;;;;;;4.82;4.55;;;1.30;99.90;;;;;;5380327;26;20018;-76
2024/04/21 00:36:13;;;;;;;5.30;5.10;;;1.30;99.90;;;;;;5435815;26;20629;-76
2024/04/21 00:38:42;;;;;;;5.65;5.35;;;1.40;99.90;;;;;;5382934;26;19995;-78
2024/04/21 00:41:09;;;;;;;5.72;4.82;;;1.30;99.90;;;;;;5382367;26;21283;-78
2024/04/21 00:43:36;;;;;;;16.58;5.50;;;1.30;99.90;;;;;;5388964;26;20419;-80
2024/04/21 00:46:05;;;;;;;9.68;4.60;;;1.30;99.90;;;;;;5393240;26;20055;-77
2024/04/21 00:48:33;;;;;;;5.18;4.78;;;1.40;99.90;;;;;;5380068;26;20018;-77
2024/04/21 00:51:01;;;;;;;14.10;4.72;;;1.40;99.90;;;;;;5352631;26;20463;-77
2024/04/21 00:53:29;;;;;;;6.93;4.70;;;1.40;99.90;;;;;;5444520;26;20073;-75
2024/04/21 00:55:57;;;;;;;8.23;5.43;;;1.40;99.90;;;;;;5363064;26;20018;-75
2024/04/21 00:58:25;;;;;;;8.77;5.25;;;1.40;99.90;;;;;;5349653;26;20019;-76
2024/04/21 01:00:52;;;;;;;12.43;5.90;;;1.40;99.90;;;;;;5314514;26;19996;-77
2024/04/21 01:03:20;;;;;;;9.23;5.90;;;1.40;99.90;;;;;;5354977;26;20011;-75
2024/04/21 01:05:47;;;;;;;6.90;5.93;;;1.40;99.90;;;;;;5353336;26;20003;-75
2024/04/21 01:08:18;;;;;;;8.82;5.93;;;1.40;99.90;;;;;;5428021;26;20081;-74
2024/04/21 01:10:45;;;;;;;9.07;5.63;;;1.40;99.90;;;;;;5371215;26;20027;-74
2024/04/21 01:13:13;;;;;;;9.50;5.38;;;1.40;99.90;;;;;;5357785;26;20008;-74
2024/04/21 01:15:40;;;;;;;10.00;5.50;;;1.40;99.90;;;;;;5352368;26;20327;-73
2024/04/21 01:18:08;;;;;;;6.70;5.45;;;1.40;99.90;;;;;;5354317;26;20349;-75
2024/04/21 01:20:36;;;;;;;6.35;5.72;;;1.40;99.90;;;;;;5387101;26;20000;-75
2024/04/21 01:23:06;;;;;;;6.28;5.78;;;1.40;99.90;;;;;;5382119;26;19995;-75
2024/04/21 01:25:33;;;;;;;6.50;5.97;;;1.50;99.90;;;;;;5379455;26;20410;-74
2024/04/21 01:28:00;;;;;;;6.03;5.43;;;1.60;99.90;;;;;;5375272;26;20824;-74
2024/04/21 01:30:28;;;;;;;6.47;5.97;;;1.50;99.90;;;;;;5391856;26;20711;-74
2024/04/21 01:32:56;;;;;;;5.95;5.60;;;1.50;99.90;;;;;;5383553;26;20011;-74
2024/04/21 01:35:23;;;;;;;13.48;6.90;;;1.50;99.90;;;;;;5378705;26;20022;-74
2024/04/21 01:37:50;;;;;;;6.78;5.90;;;1.50;99.90;;;;;;5379768;26;20004;-73
2024/04/21 01:40:19;;;;;;;19.50;7.20;;;1.50;99.90;;;;;;5351827;26;20014;-73
2024/04/21 01:42:46;;;;;;;10.85;7.10;;;1.60;99.90;;;;;;5386836;26;20012;-72
2024/04/21 01:45:15;;;;;;;6.50;6.20;;;1.60;99.90;;;;;;5379801;26;20006;-72
2024/04/21 01:47:42;;;;;;;7.53;6.90;;;1.60;99.90;;;;;;5379704;26;20012;-72
2024/04/21 01:50:12;;;;;;;6.88;6.40;;;1.60;99.90;;;;;;5385899;26;20589;-75
2024/04/21 01:52:39;;;;;;;7.40;6.85;;;1.50;99.90;;;;;;5389890;26;20003;-74
2024/04/21 01:55:06;;;;;;;7.00;6.70;;;1.50;99.90;;;;;;5374654;26;20004;-75
2024/04/21 01:57:37;;;;;;;5.65;5.45;;;1.50;99.90;;;;;;5374332;26;20005;-74
2024/04/21 02:00:05;;;;;;;5.55;5.30;;;1.50;99.90;;;;;;5353287;26;20529;-75
2024/04/21 02:02:39;;;;;;;4.95;4.55;;;1.40;99.90;;;;;;5390925;26;20011;-75
2024/04/21 02:05:06;;;;;;;6.85;4.20;;;1.40;99.90;;;;;;5388945;26;20047;-74
2024/04/21 02:07:33;;;;;;;5.43;4.43;;;1.40;99.90;;;;;;5376864;26;20007;-76
2024/04/21 02:10:01;;;;;;;4.00;3.70;;;1.30;99.90;;;;;;5382054;26;20717;-75
2024/04/21 02:12:28;;;;;;;5.97;3.50;;;1.20;99.90;;;;;;5432872;26;20040;-75
2024/04/21 02:14:55;;;;;;;3.95;3.60;;;1.20;99.90;;;;;;5353805;26;20742;-75
2024/04/21 02:17:23;;;;;;;3.50;3.30;;;1.20;99.90;;;;;;5371402;26;20036;-76
2024/04/21 02:19:50;;;;;;;3.67;3.30;;;1.20;99.90;;;;;;5380575;26;20012;-75
2024/04/21 02:22:17;;;;;;;7.18;4.03;;;1.20;99.90;;;;;;5391206;26;20511;-74
2024/04/21 02:24:45;;;;;;;22.25;3.60;;;1.20;99.90;;;;;;5374109;26;20019;-75
2024/04/21 02:27:12;;;;;;;3.42;3.13;;;1.20;99.90;;;;;;5435618;26;20057;-74
2024/04/21 02:29:39;;;;;;;3.63;3.33;;;1.20;99.90;;;;;;5379114;26;20011;-77
2024/04/21 02:32:06;;;;;;;3.45;3.13;;;1.30;99.90;;;;;;5383198;26;20003;-75
2024/04/21 02:34:36;;;;;;;3.50;3.20;;;1.20;99.90;;;;;;5397847;26;20003;-76
2024/04/21 02:37:03;;;;;;;3.97;3.72;;;1.20;99.90;;;;;;5378427;26;20011;-80
2024/04/21 02:39:32;;;;;;;5.03;4.13;;;1.20;99.90;;;;;;5334914;26;1336163;-77
2024/04/21 02:41:59;;;;;;;4.22;4.03;;;1.20;99.90;;;;;;5343008;26;20000;-79
2024/04/21 02:44:28;;;;;;;4.82;4.38;;;1.30;99.90;;;;;;5325876;26;20012;-78
2024/04/21 02:46:56;;;;;;;5.60;5.10;;;1.30;99.90;;;;;;5344471;26;20000;-78
2024/04/21 02:49:23;;;;;;;6.22;5.68;;;1.30;99.90;;;;;;5374730;26;20005;-78
2024/04/21 02:51:50;;;;;;;6.43;5.78;;;1.30;99.90;;;;;;5331933;26;20004;-77
2024/04/21 02:54:19;;;;;;;10.77;7.53;;;1.30;99.90;;;;;;5381270;26;19996;-79
2024/04/21 02:56:47;;;;;;;9.77;8.20;;;1.30;99.90;;;;;;5358855;26;20000;-84
2024/04/21 02:59:15;;;;;;;12.70;7.20;;;1.30;99.90;;;;;;5319601;26;20008;-80
2024/04/21 03:01:46;;;;;;;8.43;7.20;;;1.40;99.90;;;;;;5352759;26;20024;-81
2024/04/21 03:04:17;;;;;;;8.48;7.43;;;1.40;99.90;;;;;;5224485;26;20003;-82
2024/04/21 03:06:48;;;;;;;9.38;7.50;;;1.40;99.90;;;;;;5268286;26;20019;-80
2024/04/21 03:09:16;;;;;;;8.35;7.45;;;1.40;99.90;;;;;;5231876;26;20012;-83
2024/04/21 03:11:46;;;;;;;8.68;7.82;;;1.50;99.90;;;;;;5285041;26;20033;-82
2024/04/21 03:14:15;;;;;;;9.63;8.63;;;1.50;99.90;;;;;;5270543;26;20005;-81
2024/04/21 03:16:42;;;;;;;11.82;8.70;;;1.50;99.90;;;;;;5271263;26;20146;-81
2024/04/21 03:19:09;;;;;;;11.02;8.05;;;1.50;99.90;;;;;;5301714;26;20941;-79
2024/04/21 03:21:38;;;;;;;11.50;9.13;;;1.50;99.90;;;;;;5297475;26;20218;-81
2024/04/21 03:24:09;;;;;;;10.95;9.70;;;1.50;99.90;;;;;;5374318;26;20060;-80
2024/04/21 03:26:37;;;;;;;12.45;9.32;;;1.40;99.90;;;;;;5406559;26;19998;-79
2024/04/21 03:29:04;;;;;;;15.45;11.13;;;1.40;99.90;;;;;;5341648;26;20004;-80
2024/04/21 03:31:31;;;;;;;20.17;11.63;;;1.40;99.90;;;;;;5347228;26;20074;-83
2024/04/21 03:33:58;;;;;;;17.02;11.57;;;1.40;99.90;;;;;;5346942;26;20011;-81
2024/04/21 03:36:27;;;;;;;21.48;13.23;;;1.40;99.90;;;;;;5324195;26;19999;-80
2024/04/21 03:38:55;;;;;;;19.75;14.00;;;1.50;99.90;;;;;;5350452;26;20015;-83
2024/04/21 03:41:25;;;;;;;26.65;16.55;;;1.40;99.90;;;;;;5332200;26;20010;-80
2024/04/21 03:43:55;;;;;;;35.00;18.52;;;1.40;99.90;;;;;;5348538;26;19997;-81
2024/04/21 03:46:26;;;;;;;41.30;22.90;;;1.30;99.90;;;;;;5410288;26;20000;-81
2024/04/21 03:48:55;;;;;;;46.83;21.58;;;1.30;99.90;;;;;;5347604;26;20016;-85
2024/04/21 03:51:23;;;;;;;60.28;26.67;;;1.30;99.90;;;;;;5358889;26;20414;-80
2024/04/21 03:53:50;;;;;;;65.95;28.38;;;1.20;99.90;;;;;;5344792;26;20024;-82
2024/04/21 03:56:19;;;;;;;58.50;27.77;;;1.20;99.90;;;;;;5358907;26;20721;-83
2024/04/21 03:58:49;;;;;;;47.67;23.75;;;1.20;99.90;;;;;;5344094;26;20008;-84
2024/04/21 04:01:19;;;;;;;70.78;32.50;;;1.20;99.90;;;;;;5356703;26;19995;-82
2024/04/21 04:03:47;;;;;;;76.10;33.47;;;1.20;99.90;;;;;;5361748;26;20010;-86
2024/04/21 04:06:15;;;;;;;71.35;32.53;;;1.20;99.90;;;;;;5375252;26;20014;-84
2024/04/21 04:08:43;;;;;;;73.22;31.67;;;1.20;99.90;;;;;;5389450;26;20010;-85
2024/04/21 04:11:11;;;;;;;73.70;33.20;;;1.20;99.90;;;;;;5394407;26;20033;-83
2024/04/21 04:13:41;;;;;;;71.35;30.90;;;1.20;99.90;;;;;;5395527;26;20014;-84
2024/04/21 04:16:09;;;;;;;60.53;26.40;;;1.20;99.90;;;;;;5360373;26;20092;-85
2024/04/21 04:18:37;;;;;;;45.65;21.80;;;1.20;99.90;;;;;;5367966;26;20018;-85
2024/04/21 04:21:04;;;;;;;54.90;26.45;;;1.10;99.90;;;;;;5368091;26;20003;-84
2024/04/21 04:23:35;;;;;;;54.17;24.55;;;1.10;99.90;;;;;;5394703;26;20069;-83
2024/04/21 04:26:03;;;;;;;44.35;21.50;;;1.10;99.90;;;;;;5383068;26;20012;-85
2024/04/21 04:28:38;;;;;;;41.53;21.10;;;1.10;99.90;;;;;;5388394;26;20062;-80
2024/04/21 04:31:06;;;;;;;27.20;15.73;;;1.20;99.90;;;;;;5383045;26;20003;-82
2024/04/21 04:33:34;;;;;;;36.00;20.02;;;1.20;99.90;;;;;;5374972;26;20006;-83
2024/04/21 04:36:02;;;;;;;31.70;18.27;;;1.20;99.90;;;;;;5384140;26;20007;-84
2024/04/21 04:38:30;;;;;;;26.65;17.33;;;1.20;99.90;;;;;;5385249;26;20347;-82
2024/04/21 04:40:57;;;;;;;35.97;20.10;;;1.20;99.90;;;;;;5356905;26;19999;-81
2024/04/21 04:43:25;;;;;;;29.60;18.52;;;1.20;99.90;;;;;;5342217;26;20044;-81
2024/04/21 04:45:53;;;;;;;25.05;16.77;;;1.20;99.90;;;;;;5389511;26;20017;-79
2024/04/21 04:48:21;;;;;;;31.98;19.45;;;1.30;99.90;;;;;;5354899;26;20463;-86
2024/04/21 04:50:50;;;;;;;30.48;18.67;;;1.20;99.90;;;;;;5355871;26;20243;-85
2024/04/21 04:53:18;;;;;;;26.70;16.58;;;1.20;99.90;;;;;;5390541;26;20127;-84
2024/04/21 04:55:46;;;;;;;23.98;15.32;;;1.20;99.90;;;;;;5417335;26;20040;-83
2024/04/21 04:58:14;;;;;;;34.35;19.65;;;1.20;99.90;;;;;;5382568;26;20821;-82
2024/04/21 05:00:41;;;;;;;22.33;13.60;;;1.30;99.90;;;;;;5396486;26;20000;-85
2024/04/21 05:03:10;;;;;;;31.33;19.02;;;1.20;99.90;;;;;;5387342;26;19999;-81
2024/04/21 05:05:37;;;;;;;23.75;16.63;;;1.20;99.90;;;;;;5378416;26;20170;-82
2024/04/21 05:08:08;;;;;;;29.70;18.92;;;1.30;99.90;;;;;;5299354;26;20028;-83
2024/04/21 05:10:36;;;;;;;22.98;14.82;;;1.20;99.90;;;;;;5354051;26;20051;-86
2024/04/21 05:13:04;;;;;;;30.63;18.33;;;1.30;99.90;;;;;;5354960;26;20535;-86
2024/04/21 05:15:31;;;;;;;31.20;18.90;;;1.30;99.90;;;;;;5329079;26;20012;-87
2024/04/21 05:17:58;;;;;;;25.65;15.60;;;1.30;99.90;;;;;;5349511;26;20001;-85
2024/04/21 05:20:26;;;;;;;26.77;15.20;;;1.30;99.90;;;;;;5361050;26;20011;-81
2024/04/21 05:22:53;;;;;;;34.15;18.77;;;1.30;99.90;;;;;;5356316;26;19996;-80
2024/04/21 05:25:21;;;;;;;28.60;16.98;;;1.30;99.90;;;;;;5381054;26;20015;-83
2024/04/21 05:27:48;;;;;;;32.58;19.50;;;1.30;99.90;;;;;;5381381;26;20012;-83
2024/04/21 05:30:20;;;;;;;31.35;18.50;;;1.40;99.90;;;;;;5359387;26;20010;-84
2024/04/21 05:32:47;;;;;;;31.48;19.58;;;1.40;99.90;;;;;;5390954;26;19996;-85
2024/04/21 05:35:15;;;;;;;33.45;17.77;;;1.50;99.90;;;;;;5380108;26;20104;-83
2024/04/21 05:37:43;;;;;;;32.35;19.08;;;1.40;99.90;;;;;;5364068;26;20126;-82
2024/04/21 05:40:11;;;;;;;34.33;19.42;;;1.40;99.90;;;;;;5387863;26;20055;-79
2024/04/21 05:42:40;;;;;;;34.53;20.00;;;1.50;99.90;;;;;;5384698;26;20034;-80
2024/04/21 05:45:07;;;;;;;32.17;19.80;;;1.50;99.90;;;;;;5407612;26;20007;-83
2024/04/21 05:47:35;;;;;;;33.85;18.83;;;1.60;99.90;;;;;;5395645;26;19994;-83
2024/04/21 05:50:03;;;;;;;35.40;20.67;;;1.60;99.90;;;;;;5388144;26;20463;-86
2024/04/21 05:52:30;;;;;;;25.88;15.07;;;1.60;99.90;;;;;;5363695;26;20046;-86
2024/04/21 05:54:57;;;;;;;27.40;14.85;;;1.60;99.90;;;;;;5362012;26;20007;-85
2024/04/21 05:57:26;;;;;;;29.70;15.90;;;1.60;99.90;;;;;;5367637;26;20000;-85
2024/04/21 05:59:54;;;;;;;34.92;17.58;;;1.60;99.90;;;;;;5387090;26;20004;-86
2024/04/21 06:02:21;;;;;;;37.88;19.38;;;1.50;99.90;;;;;;5358015;26;20008;-86
2024/04/21 06:04:48;;;;;;;34.15;17.30;;;1.60;99.90;;;;;;5355753;26;20029;-83
2024/04/21 06:07:16;;;;;;;28.55;15.40;;;1.60;99.90;;;;;;5374711;26;20026;-79
2024/04/21 06:09:46;;;;;;;42.95;22.10;;;1.60;99.90;;;;;;5388314;26;20680;-79
2024/04/21 06:12:15;;;;;;;42.17;22.98;;;1.70;99.90;;;;;;5380960;26;19999;-78
2024/04/21 06:14:42;;;;;;;37.63;19.63;;;1.70;99.90;;;;;;5390138;26;20011;-81
2024/04/21 06:17:09;;;;;;;37.47;19.75;;;1.70;99.90;;;;;;5351954;26;20001;-84
2024/04/21 06:19:38;;;;;;;30.80;14.93;;;1.70;99.90;;;;;;5364200;26;20010;-85
2024/04/21 06:22:05;;;;;;;27.55;15.40;;;1.60;99.90;;;;;;5349462;26;20009;-86
2024/04/21 06:24:44;;;;;;;30.75;17.23;;;1.60;99.90;;;;;;5318636;26;20013;-79
2024/04/21 06:27:11;;;;;;;39.85;20.10;;;1.70;99.90;;;;;;5342706;26;20018;-84
2024/04/21 06:29:38;;;;;;;32.65;18.75;;;1.70;99.90;;;;;;5384252;26;20026;-84
2024/04/21 06:32:05;;;;;;;42.25;20.40;;;1.70;99.90;;;;;;5323899;26;20004;-85
2024/04/21 06:34:34;;;;;;;38.90;19.52;;;1.80;99.90;;;;;;5348933;26;20109;-78
2024/04/21 06:37:01;;;;;;;39.47;20.38;;;1.80;99.90;;;;;;5357258;26;20017;-80
2024/04/21 06:39:28;;;;;;;32.22;18.58;;;1.90;99.90;;;;;;5334292;26;20085;-79
2024/04/21 06:41:57;;;;;;;92.25;41.80;;;2.10;99.90;;;;;;5319173;26;20004;-79
2024/04/21 06:44:24;;;;;;;41.63;27.33;;;2.10;99.90;;;;;;5287086;26;20032;-80
2024/04/21 06:46:51;;;;;;;27.88;16.63;;;2.10;99.90;;;;;;5336989;26;20118;-82
2024/04/21 06:49:18;;;;;;;32.30;19.85;;;2.30;99.90;;;;;;5287956;26;20531;-84
2024/04/21 06:51:46;;;;;;;34.13;21.00;;;2.20;99.90;;;;;;5354690;26;19996;-80
2024/04/21 06:54:13;;;;;;;33.17;17.90;;;2.20;99.90;;;;;;5344666;26;20023;-80
2024/04/21 06:56:42;;;;;;;31.50;21.40;;;2.30;99.90;;;;;;5396878;26;20000;-79
2024/04/21 06:59:10;;;;;;;31.48;20.90;;;2.50;99.90;;;;;;5404851;26;20007;-81
2024/04/21 07:01:37;;;;;;;35.42;23.70;;;2.70;99.90;;;;;;5414973;26;19999;-84
2024/04/21 07:04:07;;;;;;;33.30;22.25;;;2.70;99.90;;;;;;5415478;26;20002;-84
2024/04/21 07:06:34;;;;;;;43.38;31.15;;;2.60;99.90;;;;;;5376527;26;20016;-81
2024/04/21 07:09:01;;;;;;;37.20;24.70;;;2.60;99.90;;;;;;5386166;26;20012;-84
2024/04/21 07:11:32;;;;;;;40.28;26.23;;;2.70;99.90;;;;;;5385556;26;19999;-87
2024/04/21 07:13:59;;;;;;;45.15;32.25;;;2.70;99.90;;;;;;5370167;26;20005;-86
2024/04/21 07:16:44;;;;;;;27.45;17.67;;;2.60;99.90;;;;;;5378906;26;19994;-81
2024/04/21 07:19:14;;;;;;;32.10;23.35;;;2.50;99.90;;;;;;5381135;26;20058;-90
2024/04/21 07:21:41;;;;;;;31.73;26.20;;;2.70;99.90;;;;;;5372002;26;20028;-88
2024/04/21 07:24:10;;;;;;;25.50;20.45;;;2.90;99.90;;;;;;5363141;26;20016;-89
2024/04/21 07:26:40;;;;;;;25.55;21.23;;;3.00;99.90;;;;;;5350758;26;20032;-86
2024/04/21 07:29:09;;;;;;;29.80;24.33;;;3.00;99.90;;;;;;5314982;26;20012;-90
2024/04/21 07:31:37;;;;;;;26.92;24.17;;;3.20;99.90;;;;;;5386994;26;19996;-88
2024/04/21 07:34:07;;;;;;;28.55;25.60;;;3.20;99.90;;;;;;5347821;26;20479;-87
2024/04/21 07:36:37;;;;;;;28.92;26.02;;;3.30;99.90;;;;;;5362827;26;20020;-88
2024/04/21 07:39:05;;;;;;;29.70;27.00;;;3.50;99.90;;;;;;5333005;26;20467;-89
2024/04/21 07:41:35;;;;;;;30.00;27.15;;;3.50;99.90;;;;;;5330905;26;20074;-88
2024/04/21 07:44:02;;;;;;;45.92;39.22;;;3.50;99.90;;;;;;5329516;26;19996;-86
2024/04/21 07:46:30;;;;;;;78.47;51.13;;;3.30;99.90;;;;;;5322453;26;20044;-87
2024/04/21 07:49:02;;;;;;;94.78;55.80;;;3.30;99.90;;;;;;5360746;26;20000;-87
2024/04/21 07:51:29;;;;;;;66.72;45.35;;;3.30;99.90;;;;;;5354869;26;20012;-90
2024/04/21 07:54:11;;;;;;;113.65;64.93;;;3.50;99.90;;;;;;5355128;26;20553;-90
2024/04/21 07:56:39;;;;;;;86.22;54.65;;;3.30;99.90;;;;;;5352099;26;20004;-89
2024/04/21 07:59:08;;;;;;;35.53;31.63;;;3.30;99.90;;;;;;5394869;26;20022;-91
2024/04/21 08:01:35;;;;;;;44.45;38.00;;;2.90;99.90;;;;;;5369460;26;20030;-89
2024/04/21 08:04:04;;;;;;;39.25;34.97;;;2.80;99.90;;;;;;5370824;26;19999;-91
2024/04/21 08:06:37;;;;;;;45.38;40.72;;;3.10;99.90;;;;;;5394368;26;20421;-89
2024/04/21 08:09:09;;;;;;;44.33;39.88;;;3.40;99.90;;;;;;5392348;26;20335;-92
2024/04/21 08:12:01;;;;;;;40.15;36.58;;;3.30;99.90;;;;;;5389664;26;20170;-89
2024/04/21 08:14:29;;;;;;;35.92;32.63;;;3.50;99.90;;;;;;5357352;26;20917;-86
2024/04/21 08:16:58;;;;;;;43.97;39.97;;;3.50;99.90;;;;;;5357229;26;20055;-90
2024/04/21 08:19:26;;;;;;;43.33;39.13;;;3.40;99.90;;;;;;5367686;26;20349;-86
2024/04/21 08:21:53;;;;;;;53.47;48.58;;;3.60;99.90;;;;;;5364485;26;20027;-86
2024/04/21 08:24:21;;;;;;;41.00;36.88;;;3.60;99.90;;;;;;5386242;26;20003;-83
2024/04/21 08:26:49;;;;;;;39.70;35.78;;;3.60;99.90;;;;;;5390914;26;20015;-85
2024/04/21 08:29:24;;;;;;;32.50;29.27;;;3.60;99.90;;;;;;5382958;26;20734;-87
2024/04/21 08:31:51;;;;;;;36.65;32.65;;;3.80;99.90;;;;;;5409954;26;20019;-82
2024/04/21 08:34:20;;;;;;;75.05;52.28;;;4.00;99.90;;;;;;5294677;26;20038;-83
2024/04/21 08:36:50;;;;;;;192.23;100.63;;;4.10;99.90;;;;;;5364468;26;20872;-84
2024/04/21 08:39:18;;;;;;;99.95;68.20;;;4.10;99.90;;;;;;5263827;26;20510;-85
2024/04/21 08:41:47;;;;;;;51.50;46.25;;;4.40;99.90;;;;;;5346369;26;20009;-87
2024/04/21 08:44:15;;;;;;;114.45;79.05;;;4.20;99.90;;;;;;5316096;26;20008;-86
2024/04/21 08:46:43;;;;;;;141.05;100.68;;;4.30;99.90;;;;;;5319050;26;20001;-86
2024/04/21 08:49:10;;;;;;;45.42;41.20;;;4.20;99.90;;;;;;5324132;26;20013;-84
2024/04/21 08:51:40;;;;;;;41.20;37.75;;;4.10;99.90;;;;;;5314705;26;20062;-88
2024/04/21 08:54:07;;;;;;;46.15;42.28;;;4.10;99.90;;;;;;5257502;26;20033;-84
2024/04/21 08:56:36;;;;;;;46.63;42.80;;;4.30;99.90;;;;;;5296493;26;20004;-86
2024/04/21 08:59:03;;;;;;;47.60;44.00;;;4.60;99.90;;;;;;5286363;26;20061;-86
2024/04/21 09:01:31;;;;;;;48.38;44.95;;;4.90;99.90;;;;;;5296628;26;20683;-85
2024/04/21 09:04:02;;;;;;;50.35;46.92;;;5.40;99.90;;;;;;5310730;26;20001;-87
2024/04/21 09:06:30;;;;;;;53.95;50.17;;;5.10;99.90;;;;;;5327615;26;20000;-86
2024/04/21 09:08:58;;;;;;;53.63;49.90;;;5.50;99.90;;;;;;5349220;26;20019;-86
2024/04/21 09:11:28;;;;;;;52.88;49.35;;;5.50;99.90;;;;;;5307154;26;20003;-85
2024/04/21 09:13:55;;;;;;;57.78;54.05;;;5.30;99.90;;;;;;5357395;26;20058;-86
2024/04/21 09:16:25;;;;;;;55.33;51.85;;;5.80;99.90;;;;;;5357775;26;20008;-84
2024/04/21 09:18:53;;;;;;;57.28;53.13;;;5.40;99.90;;;;;;5362473;26;20008;-81
2024/04/21 09:21:20;;;;;;;50.80;47.40;;;4.90;99.90;;;;;;5338852;26;20012;-81
2024/04/21 09:23:48;;;;;;;51.22;47.50;;;4.50;99.90;;;;;;5381640;26;20048;-84
2024/04/21 09:26:18;;;;;;;43.95;41.15;;;4.60;99.90;;;;;;5361743;26;20012;-83
2024/04/21 09:28:49;;;;;;;54.00;50.50;;;4.60;99.90;;;;;;5350806;26;20004;-82
2024/04/21 09:31:17;;;;;;;48.53;45.40;;;4.30;99.90;;;;;;5381920;26;20072;-84
2024/04/21 09:33:49;;;;;;;57.50;53.80;;;4.50;99.90;;;;;;5389236;26;20016;-81
2024/04/21 09:36:16;;;;;;;55.20;51.78;;;4.30;99.90;;;;;;5388234;26;20004;-80
2024/04/21 09:38:46;;;;;;;47.40;44.25;;;4.20;99.90;;;;;;5388271;26;20039;-82
2024/04/21 09:41:17;;;;;;;48.10;45.10;;;4.20;99.90;;;;;;5384383;26;20015;-82
2024/04/21 09:43:47;;;;;;;46.63;43.72;;;4.30;99.90;;;;;;5411754;26;20444;-81
2024/04/21 09:46:17;;;;;;;43.42;40.72;;;4.60;99.90;;;;;;5342109;26;20046;-82
2024/04/21 09:48:49;;;;;;;45.65;42.65;;;4.90;99.90;;;;;;5400732;26;20076;-81
2024/04/21 09:51:17;;;;;;;50.50;47.75;;;5.30;99.90;;;;;;5384605;26;20108;-80
2024/04/21 09:53:48;;;;;;;47.45;44.42;;;5.00;99.90;;;;;;5339961;26;20091;-80
2024/04/21 09:56:19;;;;;;;47.38;44.17;;;4.80;99.90;;;;;;5356377;26;20081;-79
2024/04/21 09:58:49;;;;;;;46.20;43.25;;;4.80;99.90;;;;;;5369349;26;20095;-80
2024/04/21 10:01:33;;;;;;;51.25;47.97;;;5.10;99.90;;;;;;5354930;26;20361;-79
2024/04/21 10:04:02;;;;;;;46.00;43.00;;;5.00;99.90;;;;;;5356563;26;20716;-81
2024/04/21 10:06:31;;;;;;;45.80;42.90;;;5.40;99.90;;;;;;5372705;26;20011;-80
2024/04/21 10:09:03;;;;;;;46.58;43.88;;;5.90;99.90;;;;;;5384911;26;20019;-81
2024/04/21 10:11:31;;;;;;;48.63;45.72;;;6.30;99.90;;;;;;5373192;26;20022;-80
2024/04/21 10:14:01;;;;;;;48.65;45.70;;;5.40;99.90;;;;;;5387182;26;20020;-82
2024/04/21 10:16:30;;;;;;;50.20;47.17;;;5.10;99.90;;;;;;5379752;26;20018;-82
2024/04/21 10:19:04;;;;;;;48.28;45.30;;;5.20;99.90;;;;;;5391039;26;19996;-80
2024/04/21 10:21:31;;;;;;;48.78;45.83;;;5.20;99.90;;;;;;5391831;26;20083;-81
2024/04/21 10:24:01;;;;;;;52.58;49.50;;;5.30;99.90;;;;;;5386939;26;20722;-82
2024/04/21 10:26:30;;;;;;;49.72;46.40;;;5.40;99.90;;;;;;5382351;26;20513;-78
2024/04/21 10:29:10;;;;;;;46.13;43.40;;;5.70;99.90;;;;;;5379831;26;20018;-81
2024/04/21 10:31:38;;;;;;;50.80;47.60;;;5.80;99.90;;;;;;5381745;26;20004;-79
2024/04/21 10:34:14;;;;;;;51.47;48.67;;;5.80;99.90;;;;;;5390260;26;19999;-80
2024/04/21 10:36:45;;;;;;;52.03;49.20;;;5.90;99.90;;;;;;5385408;26;20047;-80
2024/04/21 10:39:26;;;;;;;54.25;51.35;;;5.80;99.90;;;;;;5387044;26;20055;-80
2024/04/21 10:42:02;;;;;;;50.25;47.55;;;6.00;99.90;;;;;;5382829;26;20032;-82
2024/04/21 10:44:29;;;;;;;50.63;48.13;;;6.00;99.90;;;;;;5346521;26;20369;-82
2024/04/21 10:46:56;;;;;;;53.08;50.47;;;6.10;99.90;;;;;;5361397;26;20022;-82
2024/04/21 10:49:24;;;;;;;52.60;50.10;;;5.30;99.90;;;;;;5327253;26;20007;-85
2024/04/21 10:51:51;;;;;;;49.70;47.20;;;5.00;99.90;;;;;;5352164;26;19996;-84
2024/04/21 10:54:18;;;;;;;48.47;45.67;;;4.80;99.90;;;;;;5329973;26;20008;-86
2024/04/21 10:56:49;;;;;;;46.88;44.08;;;4.90;99.90;;;;;;5367716;26;20039;-86
2024/04/21 10:59:17;;;;;;;47.72;44.67;;;5.10;99.90;;;;;;5330019;26;20004;-84
2024/04/21 11:01:45;;;;;;;49.20;46.53;;;5.60;99.90;;;;;;5377445;26;20007;-84
2024/04/21 11:04:15;;;;;;;47.97;45.35;;;5.90;99.90;;;;;;5396896;26;19999;-86
2024/04/21 11:06:42;;;;;;;48.85;46.05;;;6.50;99.90;;;;;;5370964;26;20003;-84
2024/04/21 11:09:13;;;;;;;49.65;47.03;;;6.40;99.90;;;;;;5368986;26;20015;-84
2024/04/21 11:11:40;;;;;;;48.38;45.70;;;6.30;99.90;;;;;;5391428;26;19996;-82
2024/04/21 11:14:08;;;;;;;48.40;45.67;;;6.30;99.90;;;;;;5332974;26;20016;-82
2024/04/21 11:16:35;;;;;;;51.35;48.60;;;6.50;99.90;;;;;;5363810;26;20007;-82
2024/04/21 11:19:02;;;;;;;56.10;53.00;;;6.80;99.90;;;;;;5418292;26;20098;-80
2024/04/21 11:21:30;;;;;;;56.05;53.00;;;6.80;99.90;;;;;;5439093;26;20663;-82
2024/04/21 11:24:00;;;;;;;54.25;51.45;;;6.60;99.90;;;;;;5383244;26;20007;-83
2024/04/21 11:26:28;;;;;;;58.08;55.08;;;6.80;99.90;;;;;;5366221;26;20330;-80
2024/04/21 11:28:58;;;;;;;57.85;54.85;;;6.40;99.90;;;;;;5342210;26;20438;-83
2024/04/21 11:31:29;;;;;;;58.22;55.13;;;6.10;99.90;;;;;;5331259;26;20003;-81
2024/04/21 11:34:00;;;;;;;58.63;55.50;;;6.00;99.90;;;;;;5353432;26;20050;-84
2024/04/21 11:36:31;;;;;;;57.58;54.47;;;5.90;99.90;;;;;;5371945;26;20008;-85
2024/04/21 11:38:58;;;;;;;58.17;55.17;;;6.30;99.90;;;;;;5400444;26;20311;-85
2024/04/21 11:41:26;;;;;;;54.50;51.55;;;6.30;99.90;;;;;;5354729;26;21196;-85
2024/04/21 11:43:55;;;;;;;45.17;42.67;;;6.50;99.90;;;;;;5328136;26;20007;-87
2024/04/21 11:46:23;;;;;;;42.15;39.45;;;5.90;99.90;;;;;;5359383;26;20060;-85
2024/04/21 11:48:53;;;;;;;46.65;43.85;;;5.80;99.90;;;;;;5364494;26;21307;-83
2024/04/21 11:51:24;;;;;;;44.75;42.17;;;6.10;99.90;;;;;;5394924;26;20098;-86
2024/04/21 11:53:51;;;;;;;45.67;43.05;;;6.00;99.90;;;;;;5344669;26;20048;-86
2024/04/21 11:56:18;;;;;;;46.83;44.13;;;6.00;99.90;;;;;;5306487;26;19997;-82
2024/04/21 11:58:46;;;;;;;49.55;46.70;;;6.30;99.90;;;;;;5277074;26;20013;-86
2024/04/21 12:01:13;;;;;;;48.47;45.88;;;6.30;99.90;;;;;;5332038;26;20169;-84
2024/04/21 12:03:50;;;;;;;56.65;53.53;;;6.60;99.90;;;;;;5322320;26;20380;-85
2024/04/21 12:06:17;;;;;;;54.85;51.75;;;6.30;99.90;;;;;;5325907;26;20712;-85
2024/04/21 12:08:45;;;;;;;55.45;52.42;;;6.30;99.90;;;;;;5322798;26;20040;-85
2024/04/21 12:11:14;;;;;;;55.35;52.42;;;6.30;99.90;;;;;;5324564;26;20008;-85
2024/04/21 12:13:42;;;;;;;60.88;57.67;;;6.50;99.90;;;;;;5293700;26;20464;-83
2024/04/21 12:16:10;;;;;;;55.28;52.10;;;6.90;99.90;;;;;;5296092;26;20004;-86
2024/04/21 12:18:37;;;;;;;49.92;47.22;;;6.60;99.90;;;;;;5346581;26;20415;-86
2024/04/21 12:21:08;;;;;;;48.00;45.33;;;6.30;99.90;;;;;;5333087;26;20124;-86
2024/04/21 12:23:35;;;;;;;53.45;50.45;;;6.10;99.90;;;;;;5307478;26;20107;-88
2024/04/21 12:26:03;;;;;;;61.25;57.85;;;5.70;99.90;;;;;;5351935;26;20019;-87
2024/04/21 12:28:33;;;;;;;58.08;54.85;;;6.10;99.90;;;;;;5352343;26;20031;-88
2024/04/21 12:31:01;;;;;;;47.15;44.42;;;6.40;99.90;;;;;;5364799;26;20117;-89
2024/04/21 12:33:29;;;;;;;53.78;50.70;;;6.40;99.90;;;;;;5335754;26;20036;-88
2024/04/21 12:35:56;;;;;;;52.58;49.33;;;6.00;99.90;;;;;;5327502;26;20063;-89
2024/04/21 12:38:24;;;;;;;55.60;52.35;;;6.20;99.90;;;;;;5307543;26;20066;-87
2024/04/21 12:40:52;;;;;;;58.08;54.50;;;6.40;99.90;;;;;;5303127;26;20008;-88
2024/04/21 12:43:19;;;;;;;57.17;54.05;;;6.10;99.90;;;;;;5309109;26;20004;-87
2024/04/21 12:45:46;;;;;;;57.53;54.22;;;5.60;99.90;;;;;;5322279;26;20000;-89
2024/04/21 12:48:15;;;;;;;59.97;56.47;;;5.60;99.90;;;;;;5306043;26;20015;-86